sensor_id;sensor_type;location;lat;lon;timestamp;P1;durP1;ratioP1;P2;durP2;ratioP2
30543;SDS011;43388;46.308;4.600;2022-09-20T00:00:07;5.30;;;2.35;;
30543;SDS011;43388;46.308;4.600;2022-09-20T00:02:35;6.82;;;2.40;;
30543;SDS011;43388;46.308;4.600;2022-09-20T00:05:01;5.75;;;3.10;;
30543;SDS011;43388;46.308;4.600;2022-09-20T00:07:28;9.77;;;4.78;;
30543;SDS011;43388;46.308;4.600;2022-09-20T00:09:54;7.53;;;4.22;;
30543;SDS011;43388;46.308;4.600;2022-09-20T00:12:21;8.00;;;3.90;;
30543;SDS011;43388;46.308;4.600;2022-09-20T00:14:47;8.68;;;4.70;;
30543;SDS011;43388;46.308;4.600;2022-09-20T00:17:13;10.63;;;5.00;;
30543;SDS011;43388;46.308;4.600;2022-09-20T00:19:39;12.18;;;4.95;;
30543;SDS011;43388;46.308;4.600;2022-09-20T00:22:05;8.00;;;4.63;;
30543;SDS011;43388;46.308;4.600;2022-09-20T00:24:31;8.40;;;4.63;;
30543;SDS011;43388;46.308;4.600;2022-09-20T00:27:00;7.05;;;4.20;;
30543;SDS011;43388;46.308;4.600;2022-09-20T00:29:26;7.78;;;3.97;;
30543;SDS011;43388;46.308;4.600;2022-09-20T00:31:52;5.03;;;3.45;;
30543;SDS011;43388;46.308;4.600;2022-09-20T00:34:18;8.63;;;3.42;;
30543;SDS011;43388;46.308;4.600;2022-09-20T00:37:03;8.63;;;4.20;;
30543;SDS011;43388;46.308;4.600;2022-09-20T00:39:29;6.88;;;3.83;;
30543;SDS011;43388;46.308;4.600;2022-09-20T00:41:55;9.10;;;4.60;;
30543;SDS011;43388;46.308;4.600;2022-09-20T00:49:48;7.93;;;3.83;;
30543;SDS011;43388;46.308;4.600;2022-09-20T00:52:14;8.43;;;4.00;;
30543;SDS011;43388;46.308;4.600;2022-09-20T00:54:41;13.00;;;4.00;;
30543;SDS011;43388;46.308;4.600;2022-09-20T00:57:07;8.90;;;3.90;;
30543;SDS011;43388;46.308;4.600;2022-09-20T00:59:34;8.15;;;4.35;;
30543;SDS011;43388;46.308;4.600;2022-09-20T01:02:34;5.65;;;4.00;;
30543;SDS011;43388;46.308;4.600;2022-09-20T01:04:53;9.93;;;4.25;;
30543;SDS011;43388;46.308;4.600;2022-09-20T01:07:21;9.15;;;4.57;;
30543;SDS011;43388;46.308;4.600;2022-09-20T01:09:48;8.23;;;4.25;;
30543;SDS011;43388;46.308;4.600;2022-09-20T01:12:18;7.97;;;3.60;;
30543;SDS011;43388;46.308;4.600;2022-09-20T01:14:45;13.75;;;3.20;;
30543;SDS011;43388;46.308;4.600;2022-09-20T01:17:11;5.45;;;2.50;;
30543;SDS011;43388;46.308;4.600;2022-09-20T01:22:20;3.58;;;2.63;;
30543;SDS011;43388;46.308;4.600;2022-09-20T01:24:51;9.15;;;3.08;;
30543;SDS011;43388;46.308;4.600;2022-09-20T01:30:06;9.68;;;3.55;;
30543;SDS011;43388;46.308;4.600;2022-09-20T01:32:57;6.40;;;2.85;;
30543;SDS011;43388;46.308;4.600;2022-09-20T01:35:25;6.03;;;2.85;;
30543;SDS011;43388;46.308;4.600;2022-09-20T01:40:37;4.35;;;2.80;;
30543;SDS011;43388;46.308;4.600;2022-09-20T01:45:30;4.40;;;2.72;;
30543;SDS011;43388;46.308;4.600;2022-09-20T01:55:35;8.57;;;5.00;;
30543;SDS011;43388;46.308;4.600;2022-09-20T02:11:04;9.98;;;3.75;;
30543;SDS011;43388;46.308;4.600;2022-09-20T02:26:43;6.97;;;3.15;;
30543;SDS011;43388;46.308;4.600;2022-09-20T02:37:05;12.82;;;4.65;;
30543;SDS011;43388;46.308;4.600;2022-09-20T02:39:44;9.52;;;5.47;;
30543;SDS011;43388;46.308;4.600;2022-09-20T02:47:21;9.20;;;5.47;;
30543;SDS011;43388;46.308;4.600;2022-09-20T02:50:01;7.30;;;4.63;;
30543;SDS011;43388;46.308;4.600;2022-09-20T02:55:20;6.72;;;3.15;;
30543;SDS011;43388;46.308;4.600;2022-09-20T03:06:11;5.57;;;3.20;;
30543;SDS011;43388;46.308;4.600;2022-09-20T03:21:03;6.15;;;3.47;;
30543;SDS011;43388;46.308;4.600;2022-09-20T03:23:50;8.93;;;3.92;;
30543;SDS011;43388;46.308;4.600;2022-09-20T03:26:23;8.85;;;4.15;;
30543;SDS011;43388;46.308;4.600;2022-09-20T03:34:44;7.43;;;3.42;;
30543;SDS011;43388;46.308;4.600;2022-09-20T03:46:48;6.20;;;3.22;;
30543;SDS011;43388;46.308;4.600;2022-09-20T03:54:58;7.97;;;4.07;;
30543;SDS011;43388;46.308;4.600;2022-09-20T04:02:38;13.73;;;3.22;;
30543;SDS011;43388;46.308;4.600;2022-09-20T04:05:09;7.30;;;2.97;;
30543;SDS011;43388;46.308;4.600;2022-09-20T04:15:37;8.55;;;2.92;;
30543;SDS011;43388;46.308;4.600;2022-09-20T04:20:56;9.00;;;4.15;;
30543;SDS011;43388;46.308;4.600;2022-09-20T04:26:10;10.57;;;4.30;;
30543;SDS011;43388;46.308;4.600;2022-09-20T04:28:41;10.75;;;4.65;;
30543;SDS011;43388;46.308;4.600;2022-09-20T04:31:13;11.45;;;4.25;;
30543;SDS011;43388;46.308;4.600;2022-09-20T04:33:41;5.75;;;3.15;;
30543;SDS011;43388;46.308;4.600;2022-09-20T04:52:12;7.43;;;3.40;;
30543;SDS011;43388;46.308;4.600;2022-09-20T04:54:48;11.40;;;3.20;;
30543;SDS011;43388;46.308;4.600;2022-09-20T05:00:14;8.35;;;3.58;;
30543;SDS011;43388;46.308;4.600;2022-09-20T05:15:43;11.25;;;3.38;;
30543;SDS011;43388;46.308;4.600;2022-09-20T05:20:42;9.27;;;4.00;;
30543;SDS011;43388;46.308;4.600;2022-09-20T05:23:17;7.38;;;3.60;;
30543;SDS011;43388;46.308;4.600;2022-09-20T05:31:35;11.13;;;3.43;;
30543;SDS011;43388;46.308;4.600;2022-09-20T05:34:10;9.52;;;5.35;;
30543;SDS011;43388;46.308;4.600;2022-09-20T05:36:48;5.68;;;4.03;;
30543;SDS011;43388;46.308;4.600;2022-09-20T05:39:35;4.75;;;3.30;;
30543;SDS011;43388;46.308;4.600;2022-09-20T05:44:50;5.50;;;3.00;;
30543;SDS011;43388;46.308;4.600;2022-09-20T05:57:42;5.82;;;2.78;;
30543;SDS011;43388;46.308;4.600;2022-09-20T06:00:15;5.95;;;2.65;;
30543;SDS011;43388;46.308;4.600;2022-09-20T06:03:04;7.88;;;3.03;;
30543;SDS011;43388;46.308;4.600;2022-09-20T06:08:14;10.40;;;3.05;;
30543;SDS011;43388;46.308;4.600;2022-09-20T06:11:27;7.97;;;3.13;;
30543;SDS011;43388;46.308;4.600;2022-09-20T06:19:22;7.82;;;3.20;;
30543;SDS011;43388;46.308;4.600;2022-09-20T06:21:55;8.13;;;3.75;;
30543;SDS011;43388;46.308;4.600;2022-09-20T06:24:34;8.80;;;3.00;;
30543;SDS011;43388;46.308;4.600;2022-09-20T06:27:03;7.22;;;3.78;;
30543;SDS011;43388;46.308;4.600;2022-09-20T06:29:34;4.65;;;3.28;;
30543;SDS011;43388;46.308;4.600;2022-09-20T06:32:00;8.23;;;3.92;;
30543;SDS011;43388;46.308;4.600;2022-09-20T06:34:26;6.07;;;3.33;;
30543;SDS011;43388;46.308;4.600;2022-09-20T06:36:59;10.85;;;3.65;;
30543;SDS011;43388;46.308;4.600;2022-09-20T06:42:32;10.23;;;8.30;;
30543;SDS011;43388;46.308;4.600;2022-09-20T06:45:00;10.68;;;3.72;;
30543;SDS011;43388;46.308;4.600;2022-09-20T06:47:26;12.07;;;5.07;;
30543;SDS011;43388;46.308;4.600;2022-09-20T06:49:53;11.23;;;3.88;;
30543;SDS011;43388;46.308;4.600;2022-09-20T06:52:20;10.45;;;3.70;;
30543;SDS011;43388;46.308;4.600;2022-09-20T06:54:47;13.63;;;3.33;;
30543;SDS011;43388;46.308;4.600;2022-09-20T06:57:15;11.13;;;4.15;;
30543;SDS011;43388;46.308;4.600;2022-09-20T06:59:41;7.50;;;3.33;;
30543;SDS011;43388;46.308;4.600;2022-09-20T07:02:07;9.40;;;3.10;;
30543;SDS011;43388;46.308;4.600;2022-09-20T07:04:34;13.25;;;3.08;;
30543;SDS011;43388;46.308;4.600;2022-09-20T07:07:02;8.23;;;2.80;;
30543;SDS011;43388;46.308;4.600;2022-09-20T07:09:28;9.82;;;3.17;;
30543;SDS011;43388;46.308;4.600;2022-09-20T07:11:54;6.05;;;2.88;;
30543;SDS011;43388;46.308;4.600;2022-09-20T07:14:23;9.32;;;3.30;;
30543;SDS011;43388;46.308;4.600;2022-09-20T07:16:50;7.07;;;2.55;;
30543;SDS011;43388;46.308;4.600;2022-09-20T07:19:16;6.43;;;3.00;;
30543;SDS011;43388;46.308;4.600;2022-09-20T07:21:42;10.00;;;2.92;;
30543;SDS011;43388;46.308;4.600;2022-09-20T07:24:08;14.02;;;3.28;;
30543;SDS011;43388;46.308;4.600;2022-09-20T07:26:34;14.43;;;3.50;;
30543;SDS011;43388;46.308;4.600;2022-09-20T07:29:02;6.38;;;2.83;;
30543;SDS011;43388;46.308;4.600;2022-09-20T07:31:30;6.22;;;2.70;;
30543;SDS011;43388;46.308;4.600;2022-09-20T07:33:57;8.32;;;3.15;;
30543;SDS011;43388;46.308;4.600;2022-09-20T07:36:23;5.88;;;2.70;;
30543;SDS011;43388;46.308;4.600;2022-09-20T07:38:49;8.65;;;2.67;;
30543;SDS011;43388;46.308;4.600;2022-09-20T07:41:16;9.07;;;3.75;;
30543;SDS011;43388;46.308;4.600;2022-09-20T07:43:43;6.97;;;3.38;;
30543;SDS011;43388;46.308;4.600;2022-09-20T07:46:09;4.78;;;3.25;;
30543;SDS011;43388;46.308;4.600;2022-09-20T07:48:39;8.90;;;3.28;;
30543;SDS011;43388;46.308;4.600;2022-09-20T07:51:06;9.18;;;3.03;;
30543;SDS011;43388;46.308;4.600;2022-09-20T07:53:33;16.38;;;3.85;;
30543;SDS011;43388;46.308;4.600;2022-09-20T07:56:05;8.82;;;3.08;;
30543;SDS011;43388;46.308;4.600;2022-09-20T07:58:32;7.38;;;2.80;;
30543;SDS011;43388;46.308;4.600;2022-09-20T08:00:59;8.30;;;3.85;;
30543;SDS011;43388;46.308;4.600;2022-09-20T08:03:26;8.10;;;3.53;;
30543;SDS011;43388;46.308;4.600;2022-09-20T08:06:00;7.80;;;3.65;;
30543;SDS011;43388;46.308;4.600;2022-09-20T08:08:27;6.18;;;2.50;;
30543;SDS011;43388;46.308;4.600;2022-09-20T08:10:59;11.35;;;3.50;;
30543;SDS011;43388;46.308;4.600;2022-09-20T08:13:26;5.68;;;2.95;;
30543;SDS011;43388;46.308;4.600;2022-09-20T08:15:59;7.25;;;3.20;;
30543;SDS011;43388;46.308;4.600;2022-09-20T08:18:26;7.65;;;3.30;;
30543;SDS011;43388;46.308;4.600;2022-09-20T08:20:52;9.68;;;3.53;;
30543;SDS011;43388;46.308;4.600;2022-09-20T08:23:19;7.07;;;2.78;;
30543;SDS011;43388;46.308;4.600;2022-09-20T08:25:46;10.60;;;2.97;;
30543;SDS011;43388;46.308;4.600;2022-09-20T08:28:13;7.13;;;2.60;;
30543;SDS011;43388;46.308;4.600;2022-09-20T08:30:39;8.55;;;3.10;;
30543;SDS011;43388;46.308;4.600;2022-09-20T08:33:06;11.35;;;3.22;;
30543;SDS011;43388;46.308;4.600;2022-09-20T08:35:36;6.05;;;3.28;;
30543;SDS011;43388;46.308;4.600;2022-09-20T08:38:02;11.45;;;3.22;;
30543;SDS011;43388;46.308;4.600;2022-09-20T08:40:28;5.55;;;2.92;;
30543;SDS011;43388;46.308;4.600;2022-09-20T08:42:55;8.27;;;2.88;;
30543;SDS011;43388;46.308;4.600;2022-09-20T08:45:23;4.57;;;2.95;;
30543;SDS011;43388;46.308;4.600;2022-09-20T08:47:57;6.38;;;2.60;;
30543;SDS011;43388;46.308;4.600;2022-09-20T08:50:23;6.22;;;2.67;;
30543;SDS011;43388;46.308;4.600;2022-09-20T08:52:51;4.13;;;2.35;;
30543;SDS011;43388;46.308;4.600;2022-09-20T08:55:19;7.07;;;2.63;;
30543;SDS011;43388;46.308;4.600;2022-09-20T08:57:47;5.97;;;3.00;;
30543;SDS011;43388;46.308;4.600;2022-09-20T09:00:15;7.40;;;3.10;;
30543;SDS011;43388;46.308;4.600;2022-09-20T09:02:42;7.90;;;2.85;;
30543;SDS011;43388;46.308;4.600;2022-09-20T09:05:28;8.80;;;3.60;;
30543;SDS011;43388;46.308;4.600;2022-09-20T09:07:55;9.25;;;3.47;;
30543;SDS011;43388;46.308;4.600;2022-09-20T09:10:26;8.85;;;3.13;;
30543;SDS011;43388;46.308;4.600;2022-09-20T09:12:53;9.00;;;3.22;;
30543;SDS011;43388;46.308;4.600;2022-09-20T09:15:22;11.57;;;2.75;;
30543;SDS011;43388;46.308;4.600;2022-09-20T09:17:51;5.32;;;2.40;;
30543;SDS011;43388;46.308;4.600;2022-09-20T09:20:19;6.72;;;2.47;;
30543;SDS011;43388;46.308;4.600;2022-09-20T09:22:47;8.77;;;2.72;;
30543;SDS011;43388;46.308;4.600;2022-09-20T09:27:52;5.97;;;2.47;;
30543;SDS011;43388;46.308;4.600;2022-09-20T09:30:21;7.63;;;2.40;;
30543;SDS011;43388;46.308;4.600;2022-09-20T09:32:47;7.68;;;2.80;;
30543;SDS011;43388;46.308;4.600;2022-09-20T09:35:24;4.95;;;2.53;;
30543;SDS011;43388;46.308;4.600;2022-09-20T09:38:00;7.00;;;2.63;;
30543;SDS011;43388;46.308;4.600;2022-09-20T09:40:28;5.43;;;2.47;;
30543;SDS011;43388;46.308;4.600;2022-09-20T09:42:59;8.70;;;2.78;;
30543;SDS011;43388;46.308;4.600;2022-09-20T09:45:35;8.30;;;2.53;;
30543;SDS011;43388;46.308;4.600;2022-09-20T09:48:16;4.10;;;2.05;;
30543;SDS011;43388;46.308;4.600;2022-09-20T09:50:43;4.53;;;2.38;;
30543;SDS011;43388;46.308;4.600;2022-09-20T09:53:10;5.28;;;2.05;;
30543;SDS011;43388;46.308;4.600;2022-09-20T09:58:33;6.68;;;2.60;;
30543;SDS011;43388;46.308;4.600;2022-09-20T10:01:03;5.30;;;2.70;;
30543;SDS011;43388;46.308;4.600;2022-09-20T10:03:39;5.63;;;2.30;;
30543;SDS011;43388;46.308;4.600;2022-09-20T10:06:15;4.72;;;2.20;;
30543;SDS011;43388;46.308;4.600;2022-09-20T10:24:20;7.30;;;2.75;;
30543;SDS011;43388;46.308;4.600;2022-09-20T10:27:04;6.45;;;2.03;;
30543;SDS011;43388;46.308;4.600;2022-09-20T10:40:26;7.32;;;2.72;;
30543;SDS011;43388;46.308;4.600;2022-09-20T10:43:17;6.10;;;2.42;;
30543;SDS011;43388;46.308;4.600;2022-09-20T10:46:03;5.90;;;2.38;;
30543;SDS011;43388;46.308;4.600;2022-09-20T10:48:41;4.47;;;2.38;;
30543;SDS011;43388;46.308;4.600;2022-09-20T10:56:43;5.00;;;2.63;;
30543;SDS011;43388;46.308;4.600;2022-09-20T11:04:19;6.65;;;2.55;;
30543;SDS011;43388;46.308;4.600;2022-09-20T11:09:17;5.15;;;2.45;;
30543;SDS011;43388;46.308;4.600;2022-09-20T11:12:22;5.80;;;2.70;;
30543;SDS011;43388;46.308;4.600;2022-09-20T11:14:53;3.55;;;2.40;;
30543;SDS011;43388;46.308;4.600;2022-09-20T11:22:19;4.55;;;2.45;;
30543;SDS011;43388;46.308;4.600;2022-09-20T11:24:50;2.72;;;2.40;;
30543;SDS011;43388;46.308;4.600;2022-09-20T11:27:24;3.95;;;2.00;;
30543;SDS011;43388;46.308;4.600;2022-09-20T11:32:29;6.20;;;2.67;;
30543;SDS011;43388;46.308;4.600;2022-09-20T11:35:13;5.88;;;2.10;;
30543;SDS011;43388;46.308;4.600;2022-09-20T11:37:45;4.72;;;2.40;;
30543;SDS011;43388;46.308;4.600;2022-09-20T11:40:14;4.78;;;2.45;;
30543;SDS011;43388;46.308;4.600;2022-09-20T11:42:44;4.55;;;2.05;;
30543;SDS011;43388;46.308;4.600;2022-09-20T11:45:11;3.15;;;2.20;;
30543;SDS011;43388;46.308;4.600;2022-09-20T11:47:39;3.05;;;1.92;;
30543;SDS011;43388;46.308;4.600;2022-09-20T11:55:46;3.58;;;2.05;;
30543;SDS011;43388;46.308;4.600;2022-09-20T11:58:13;3.40;;;2.20;;
30543;SDS011;43388;46.308;4.600;2022-09-20T12:00:42;4.55;;;2.42;;
30543;SDS011;43388;46.308;4.600;2022-09-20T12:03:20;4.85;;;2.22;;
30543;SDS011;43388;46.308;4.600;2022-09-20T12:05:46;5.65;;;2.10;;
30543;SDS011;43388;46.308;4.600;2022-09-20T12:08:21;4.95;;;2.25;;
30543;SDS011;43388;46.308;4.600;2022-09-20T12:10:56;4.53;;;2.00;;
30543;SDS011;43388;46.308;4.600;2022-09-20T12:13:24;4.00;;;2.13;;
30543;SDS011;43388;46.308;4.600;2022-09-20T12:36:35;5.30;;;1.80;;
30543;SDS011;43388;46.308;4.600;2022-09-20T12:41:42;4.88;;;1.95;;
30543;SDS011;43388;46.308;4.600;2022-09-20T12:44:23;3.08;;;1.33;;
30543;SDS011;43388;46.308;4.600;2022-09-20T12:47:00;3.97;;;1.55;;
30543;SDS011;43388;46.308;4.600;2022-09-20T12:49:30;2.63;;;1.67;;
30543;SDS011;43388;46.308;4.600;2022-09-20T12:52:35;3.47;;;1.75;;
30543;SDS011;43388;46.308;4.600;2022-09-20T13:00:44;5.97;;;1.50;;
30543;SDS011;43388;46.308;4.600;2022-09-20T13:05:40;2.75;;;1.40;;
30543;SDS011;43388;46.308;4.600;2022-09-20T13:08:26;3.28;;;1.30;;
30543;SDS011;43388;46.308;4.600;2022-09-20T13:16:06;2.78;;;1.50;;
30543;SDS011;43388;46.308;4.600;2022-09-20T13:18:33;3.72;;;1.85;;
30543;SDS011;43388;46.308;4.600;2022-09-20T13:20:59;3.53;;;1.70;;
30543;SDS011;43388;46.308;4.600;2022-09-20T13:23:30;2.58;;;1.60;;
30543;SDS011;43388;46.308;4.600;2022-09-20T13:26:00;2.92;;;1.38;;
30543;SDS011;43388;46.308;4.600;2022-09-20T13:33:40;5.50;;;1.50;;
30543;SDS011;43388;46.308;4.600;2022-09-20T13:36:06;6.22;;;2.00;;
30543;SDS011;43388;46.308;4.600;2022-09-20T13:38:32;5.70;;;1.50;;
30543;SDS011;43388;46.308;4.600;2022-09-20T13:41:08;3.03;;;1.45;;
30543;SDS011;43388;46.308;4.600;2022-09-20T13:43:44;7.03;;;1.80;;
30543;SDS011;43388;46.308;4.600;2022-09-20T13:46:16;3.30;;;1.42;;
30543;SDS011;43388;46.308;4.600;2022-09-20T13:48:45;6.50;;;2.22;;
30543;SDS011;43388;46.308;4.600;2022-09-20T13:51:31;4.50;;;1.58;;
30543;SDS011;43388;46.308;4.600;2022-09-20T13:56:43;4.93;;;1.48;;
30543;SDS011;43388;46.308;4.600;2022-09-20T13:59:10;2.88;;;1.48;;
30543;SDS011;43388;46.308;4.600;2022-09-20T14:01:41;3.80;;;1.60;;
30543;SDS011;43388;46.308;4.600;2022-09-20T14:04:16;3.67;;;1.75;;
30543;SDS011;43388;46.308;4.600;2022-09-20T14:06:43;2.28;;;1.10;;
30543;SDS011;43388;46.308;4.600;2022-09-20T14:09:16;2.58;;;1.38;;
30543;SDS011;43388;46.308;4.600;2022-09-20T14:11:43;7.38;;;1.45;;
30543;SDS011;43388;46.308;4.600;2022-09-20T14:14:10;1.70;;;1.00;;
30543;SDS011;43388;46.308;4.600;2022-09-20T14:16:38;2.85;;;1.10;;
30543;SDS011;43388;46.308;4.600;2022-09-20T14:19:05;3.63;;;1.20;;
30543;SDS011;43388;46.308;4.600;2022-09-20T14:21:33;4.72;;;1.17;;
30543;SDS011;43388;46.308;4.600;2022-09-20T14:29:26;2.08;;;1.00;;
30543;SDS011;43388;46.308;4.600;2022-09-20T14:31:43;4.78;;;1.08;;
30543;SDS011;43388;46.308;4.600;2022-09-20T14:34:12;4.28;;;1.00;;
30543;SDS011;43388;46.308;4.600;2022-09-20T14:36:38;3.42;;;1.10;;
30543;SDS011;43388;46.308;4.600;2022-09-20T14:39:04;2.50;;;1.10;;
30543;SDS011;43388;46.308;4.600;2022-09-20T14:41:38;2.75;;;1.00;;
30543;SDS011;43388;46.308;4.600;2022-09-20T14:44:05;4.22;;;1.50;;
30543;SDS011;43388;46.308;4.600;2022-09-20T14:46:35;3.97;;;1.30;;
30543;SDS011;43388;46.308;4.600;2022-09-20T14:51:47;3.28;;;1.52;;
30543;SDS011;43388;46.308;4.600;2022-09-20T14:54:17;3.05;;;1.05;;
30543;SDS011;43388;46.308;4.600;2022-09-20T14:56:47;3.70;;;1.33;;
30543;SDS011;43388;46.308;4.600;2022-09-20T14:59:19;5.50;;;1.00;;
30543;SDS011;43388;46.308;4.600;2022-09-20T15:02:02;2.88;;;1.00;;
30543;SDS011;43388;46.308;4.600;2022-09-20T15:04:29;1.67;;;1.00;;
30543;SDS011;43388;46.308;4.600;2022-09-20T15:06:59;2.42;;;0.82;;
30543;SDS011;43388;46.308;4.600;2022-09-20T15:09:26;3.38;;;1.23;;
30543;SDS011;43388;46.308;4.600;2022-09-20T15:12:02;1.95;;;1.00;;
30543;SDS011;43388;46.308;4.600;2022-09-20T15:14:29;2.67;;;0.77;;
30543;SDS011;43388;46.308;4.600;2022-09-20T15:16:56;2.85;;;0.90;;
30543;SDS011;43388;46.308;4.600;2022-09-20T15:19:24;2.35;;;0.88;;
30543;SDS011;43388;46.308;4.600;2022-09-20T15:21:50;1.65;;;0.88;;
30543;SDS011;43388;46.308;4.600;2022-09-20T15:24:16;3.40;;;0.95;;
30543;SDS011;43388;46.308;4.600;2022-09-20T15:26:43;3.83;;;1.10;;
30543;SDS011;43388;46.308;4.600;2022-09-20T15:29:13;3.85;;;0.80;;
30543;SDS011;43388;46.308;4.600;2022-09-20T15:31:40;6.35;;;1.02;;
30543;SDS011;43388;46.308;4.600;2022-09-20T15:34:06;1.73;;;0.68;;
30543;SDS011;43388;46.308;4.600;2022-09-20T15:36:32;2.42;;;0.73;;
30543;SDS011;43388;46.308;4.600;2022-09-20T15:38:58;3.55;;;0.88;;
30543;SDS011;43388;46.308;4.600;2022-09-20T15:41:24;2.28;;;0.88;;
30543;SDS011;43388;46.308;4.600;2022-09-20T15:43:52;1.83;;;0.90;;
30543;SDS011;43388;46.308;4.600;2022-09-20T15:46:22;2.20;;;0.77;;
30543;SDS011;43388;46.308;4.600;2022-09-20T15:48:50;2.03;;;0.88;;
30543;SDS011;43388;46.308;4.600;2022-09-20T15:51:16;4.10;;;0.80;;
30543;SDS011;43388;46.308;4.600;2022-09-20T15:53:46;2.35;;;0.80;;
30543;SDS011;43388;46.308;4.600;2022-09-20T15:58:42;3.13;;;1.17;;
30543;SDS011;43388;46.308;4.600;2022-09-20T16:01:09;3.03;;;1.00;;
30543;SDS011;43388;46.308;4.600;2022-09-20T16:03:35;4.50;;;0.90;;
30543;SDS011;43388;46.308;4.600;2022-09-20T16:06:03;2.72;;;0.80;;
30543;SDS011;43388;46.308;4.600;2022-09-20T16:08:33;1.75;;;0.70;;
30543;SDS011;43388;46.308;4.600;2022-09-20T16:11:00;2.17;;;0.90;;
30543;SDS011;43388;46.308;4.600;2022-09-20T16:13:26;2.05;;;1.00;;
30543;SDS011;43388;46.308;4.600;2022-09-20T16:15:59;5.50;;;1.20;;
30543;SDS011;43388;46.308;4.600;2022-09-20T16:18:25;3.13;;;1.27;;
30543;SDS011;43388;46.308;4.600;2022-09-20T16:21:11;3.65;;;1.50;;
30543;SDS011;43388;46.308;4.600;2022-09-20T16:23:38;2.35;;;0.88;;
30543;SDS011;43388;46.308;4.600;2022-09-20T16:26:06;1.63;;;0.73;;
30543;SDS011;43388;46.308;4.600;2022-09-20T16:28:33;3.63;;;1.10;;
30543;SDS011;43388;46.308;4.600;2022-09-20T16:31:00;4.32;;;1.20;;
30543;SDS011;43388;46.308;4.600;2022-09-20T16:33:26;4.20;;;1.10;;
30543;SDS011;43388;46.308;4.600;2022-09-20T16:35:52;2.15;;;0.90;;
30543;SDS011;43388;46.308;4.600;2022-09-20T16:38:20;5.20;;;0.98;;
30543;SDS011;43388;46.308;4.600;2022-09-20T16:40:47;3.85;;;1.05;;
30543;SDS011;43388;46.308;4.600;2022-09-20T16:43:15;2.60;;;0.75;;
30543;SDS011;43388;46.308;4.600;2022-09-20T16:45:56;3.30;;;1.00;;
30543;SDS011;43388;46.308;4.600;2022-09-20T16:48:23;2.85;;;1.05;;
30543;SDS011;43388;46.308;4.600;2022-09-20T16:50:53;3.38;;;1.00;;
30543;SDS011;43388;46.308;4.600;2022-09-20T16:53:19;2.65;;;1.10;;
30543;SDS011;43388;46.308;4.600;2022-09-20T16:55:45;2.13;;;0.80;;
30543;SDS011;43388;46.308;4.600;2022-09-20T16:58:13;2.83;;;0.90;;
30543;SDS011;43388;46.308;4.600;2022-09-20T17:00:39;3.75;;;1.27;;
30543;SDS011;43388;46.308;4.600;2022-09-20T17:03:05;2.22;;;0.85;;
30543;SDS011;43388;46.308;4.600;2022-09-20T17:05:32;1.98;;;0.88;;
30543;SDS011;43388;46.308;4.600;2022-09-20T17:07:58;3.78;;;1.20;;
30543;SDS011;43388;46.308;4.600;2022-09-20T17:10:25;1.20;;;0.75;;
30543;SDS011;43388;46.308;4.600;2022-09-20T17:12:53;1.70;;;0.90;;
30543;SDS011;43388;46.308;4.600;2022-09-20T17:15:22;2.47;;;1.10;;
30543;SDS011;43388;46.308;4.600;2022-09-20T17:17:48;2.17;;;0.90;;
30543;SDS011;43388;46.308;4.600;2022-09-20T17:20:14;1.25;;;0.80;;
30543;SDS011;43388;46.308;4.600;2022-09-20T17:22:40;3.83;;;0.90;;
30543;SDS011;43388;46.308;4.600;2022-09-20T17:25:06;2.03;;;1.08;;
30543;SDS011;43388;46.308;4.600;2022-09-20T17:27:32;4.20;;;0.70;;
30543;SDS011;43388;46.308;4.600;2022-09-20T17:30:02;4.70;;;0.98;;
30543;SDS011;43388;46.308;4.600;2022-09-20T17:32:28;1.50;;;0.90;;
30543;SDS011;43388;46.308;4.600;2022-09-20T17:34:54;6.28;;;1.85;;
30543;SDS011;43388;46.308;4.600;2022-09-20T17:37:20;2.97;;;0.98;;
30543;SDS011;43388;46.308;4.600;2022-09-20T17:39:46;1.52;;;1.10;;
30543;SDS011;43388;46.308;4.600;2022-09-20T17:42:14;1.92;;;0.90;;
30543;SDS011;43388;46.308;4.600;2022-09-20T17:44:40;1.63;;;1.00;;
30543;SDS011;43388;46.308;4.600;2022-09-20T17:47:06;2.83;;;1.15;;
30543;SDS011;43388;46.308;4.600;2022-09-20T17:49:33;2.47;;;0.90;;
30543;SDS011;43388;46.308;4.600;2022-09-20T17:51:59;5.40;;;1.25;;
30543;SDS011;43388;46.308;4.600;2022-09-20T17:54:25;5.10;;;1.33;;
30543;SDS011;43388;46.308;4.600;2022-09-20T17:56:52;6.22;;;0.90;;
30543;SDS011;43388;46.308;4.600;2022-09-20T17:59:19;3.95;;;0.88;;
30543;SDS011;43388;46.308;4.600;2022-09-20T18:01:46;1.70;;;1.30;;
30543;SDS011;43388;46.308;4.600;2022-09-20T18:04:13;1.70;;;0.80;;
30543;SDS011;43388;46.308;4.600;2022-09-20T18:06:44;2.65;;;1.10;;
30543;SDS011;43388;46.308;4.600;2022-09-20T18:09:12;2.85;;;1.23;;
30543;SDS011;43388;46.308;4.600;2022-09-20T18:11:42;2.08;;;1.10;;
30543;SDS011;43388;46.308;4.600;2022-09-20T18:14:10;4.97;;;0.93;;
30543;SDS011;43388;46.308;4.600;2022-09-20T18:16:39;2.90;;;1.20;;
30543;SDS011;43388;46.308;4.600;2022-09-20T18:19:07;4.05;;;1.27;;
30543;SDS011;43388;46.308;4.600;2022-09-20T18:21:34;3.95;;;0.90;;
30543;SDS011;43388;46.308;4.600;2022-09-20T18:24:01;7.13;;;1.38;;
30543;SDS011;43388;46.308;4.600;2022-09-20T18:26:28;1.23;;;1.10;;
30543;SDS011;43388;46.308;4.600;2022-09-20T18:31:23;3.00;;;1.33;;
30543;SDS011;43388;46.308;4.600;2022-09-20T18:33:56;2.45;;;1.00;;
30543;SDS011;43388;46.308;4.600;2022-09-20T18:36:24;2.07;;;1.20;;
30543;SDS011;43388;46.308;4.600;2022-09-20T18:38:51;8.50;;;1.40;;
30543;SDS011;43388;46.308;4.600;2022-09-20T18:41:18;1.40;;;1.08;;
30543;SDS011;43388;46.308;4.600;2022-09-20T18:43:45;3.17;;;1.30;;
30543;SDS011;43388;46.308;4.600;2022-09-20T18:46:11;2.53;;;1.50;;
30543;SDS011;43388;46.308;4.600;2022-09-20T18:48:38;2.92;;;1.20;;
30543;SDS011;43388;46.308;4.600;2022-09-20T18:51:04;2.65;;;1.40;;
30543;SDS011;43388;46.308;4.600;2022-09-20T18:53:31;2.80;;;1.30;;
30543;SDS011;43388;46.308;4.600;2022-09-20T18:56:06;3.50;;;1.27;;
30543;SDS011;43388;46.308;4.600;2022-09-20T18:58:32;1.13;;;1.02;;
30543;SDS011;43388;46.308;4.600;2022-09-20T19:06:43;2.97;;;1.10;;
30543;SDS011;43388;46.308;4.600;2022-09-20T19:11:53;3.20;;;1.30;;
30543;SDS011;43388;46.308;4.600;2022-09-20T19:14:23;3.22;;;1.00;;
30543;SDS011;43388;46.308;4.600;2022-09-20T19:16:53;1.85;;;1.20;;
30543;SDS011;43388;46.308;4.600;2022-09-20T19:27:22;3.33;;;1.33;;
30543;SDS011;43388;46.308;4.600;2022-09-20T19:29:49;4.55;;;1.10;;
30543;SDS011;43388;46.308;4.600;2022-09-20T19:32:16;4.75;;;1.70;;
30543;SDS011;43388;46.308;4.600;2022-09-20T19:34:45;6.82;;;1.58;;
30543;SDS011;43388;46.308;4.600;2022-09-20T19:49:53;2.05;;;1.38;;
30543;SDS011;43388;46.308;4.600;2022-09-20T19:52:20;5.47;;;1.65;;
30543;SDS011;43388;46.308;4.600;2022-09-20T19:54:47;1.30;;;1.20;;
30543;SDS011;43388;46.308;4.600;2022-09-20T19:57:16;2.45;;;1.45;;
30543;SDS011;43388;46.308;4.600;2022-09-20T19:59:43;2.97;;;1.58;;
30543;SDS011;43388;46.308;4.600;2022-09-20T20:02:10;4.00;;;1.30;;
30543;SDS011;43388;46.308;4.600;2022-09-20T20:04:36;4.90;;;1.30;;
30543;SDS011;43388;46.308;4.600;2022-09-20T20:12:21;1.70;;;1.15;;
30543;SDS011;43388;46.308;4.600;2022-09-20T20:22:42;3.88;;;1.52;;
30543;SDS011;43388;46.308;4.600;2022-09-20T20:25:23;3.00;;;1.65;;
30543;SDS011;43388;46.308;4.600;2022-09-20T20:27:51;4.47;;;1.63;;
30543;SDS011;43388;46.308;4.600;2022-09-20T20:30:17;3.67;;;1.38;;
30543;SDS011;43388;46.308;4.600;2022-09-20T20:32:44;1.63;;;1.40;;
30543;SDS011;43388;46.308;4.600;2022-09-20T20:35:10;2.35;;;1.20;;
30543;SDS011;43388;46.308;4.600;2022-09-20T20:37:37;3.08;;;1.65;;
30543;SDS011;43388;46.308;4.600;2022-09-20T20:40:04;2.33;;;1.40;;
30543;SDS011;43388;46.308;4.600;2022-09-20T20:42:30;2.97;;;1.40;;
30543;SDS011;43388;46.308;4.600;2022-09-20T20:44:57;3.03;;;1.45;;
30543;SDS011;43388;46.308;4.600;2022-09-20T20:47:23;3.45;;;1.40;;